Arcola, Illinois
Current Conditions -  °F | °C
As of 12:53 AM on Friday 28 Nov 2014 (Local Time) from KMTO Reporting Station
Broken Clouds Broken Clouds  
Wind Chill: 10°   Ceiling: 9000
Heat Index: 17°   Visibility: 10mi
Dew Point:   Wind: 5mph
Humidity: 65%   Direction: 300°WNW
Pressure: 30.4"   Gusts: NA
Location:  39.68°N, 88.31°W
Report Text: KMTO 280653Z AUTO 30004KT 10SM BKN090 M08/M14 A3040 RMK AO2 SLP306 T10831139
Loading
Personal Weather Stations






























Interactive Weather Map New forecast layout! Learn more

10-Day Weather Forecast

Advertisements
Track Severe Weather on mobile